Time;durP1;ratioP1;P1;durP2;ratioP2;P2;SDS_P1;SDS_P2;PMS_P1;PMS_P2;Temp;Humidity;BMP_temperature;BMP_pressure;BME280_temperature;BME280_humidity;BME280_pressure;Samples;Min_cycle;Max_cycle;Signal;HPM_P1;HPM_P2
2022/01/31 00:00:24;;;;;;;7.57;3.35;;;16.90;55.90;;;;;;5002239;28;20033;-78
2022/01/31 00:02:50;;;;;;;11.45;3.72;;;16.90;55.90;;;;;;4987940;28;20042;-79
2022/01/31 00:05:16;;;;;;;13.85;3.50;;;16.90;55.90;;;;;;4978910;28;20088;-78
2022/01/31 00:07:41;;;;;;;12.60;3.75;;;16.90;55.80;;;;;;4982312;28;20124;-78
2022/01/31 00:10:10;;;;;;;11.02;2.80;;;16.90;55.80;;;;;;4977198;28;20414;-79
2022/01/31 00:12:47;;;;;;;10.15;3.63;;;16.90;55.80;;;;;;4982496;28;20126;-78
2022/01/31 00:15:13;;;;;;;9.13;3.45;;;16.90;55.80;;;;;;4991046;28;20038;-79
2022/01/31 00:17:38;;;;;;;10.65;3.53;;;16.90;55.70;;;;;;4990531;28;20052;-79
2022/01/31 00:20:04;;;;;;;9.52;3.75;;;16.90;55.70;;;;;;5002550;28;20030;-78
2022/01/31 00:22:30;;;;;;;10.98;3.65;;;16.90;55.80;;;;;;4970214;28;20511;-78
2022/01/31 00:24:55;;;;;;;9.15;3.10;;;16.90;55.80;;;;;;4997246;28;20038;-79
2022/01/31 00:27:21;;;;;;;9.63;3.65;;;16.90;55.60;;;;;;4982779;28;20065;-79
2022/01/31 00:29:46;;;;;;;11.20;2.70;;;16.90;55.60;;;;;;4989227;28;20649;-79
2022/01/31 00:32:12;;;;;;;7.30;2.78;;;16.90;55.60;;;;;;5002216;28;20466;-80
2022/01/31 00:34:38;;;;;;;7.57;2.90;;;16.90;55.60;;;;;;4977386;28;20053;-79
2022/01/31 00:37:04;;;;;;;8.55;3.22;;;16.90;55.60;;;;;;4961945;28;20038;-79
2022/01/31 00:39:33;;;;;;;9.27;3.42;;;16.90;55.50;;;;;;4988427;28;20714;-79
2022/01/31 00:41:59;;;;;;;9.05;3.15;;;16.90;55.60;;;;;;4999891;28;20054;-79
2022/01/31 00:44:37;;;;;;;12.18;3.58;;;16.90;55.60;;;;;;4982370;28;20064;-78
2022/01/31 00:47:15;;;;;;;7.93;3.10;;;16.90;55.50;;;;;;4978118;28;20133;-78
2022/01/31 00:49:42;;;;;;;6.88;2.63;;;16.90;55.50;;;;;;4992092;28;20046;-80
2022/01/31 00:52:07;;;;;;;6.15;2.70;;;16.80;55.50;;;;;;4964732;28;20084;-79
2022/01/31 00:54:33;;;;;;;9.43;2.80;;;16.90;55.50;;;;;;4982152;28;20419;-79
2022/01/31 00:56:58;;;;;;;8.38;2.70;;;16.90;55.50;;;;;;4997309;28;20499;-78
2022/01/31 00:59:24;;;;;;;10.32;2.90;;;16.90;55.50;;;;;;4971316;28;20615;-79
2022/01/31 01:01:49;;;;;;;10.60;2.78;;;16.80;55.40;;;;;;4997576;28;20033;-79
2022/01/31 01:04:15;;;;;;;9.75;3.10;;;16.90;55.50;;;;;;5007736;28;20038;-79
2022/01/31 01:06:41;;;;;;;5.95;2.40;;;16.80;55.40;;;;;;5007428;28;20044;-79
2022/01/31 01:09:07;;;;;;;10.68;3.08;;;16.90;55.40;;;;;;4977385;28;20045;-79
2022/01/31 01:11:33;;;;;;;8.18;2.85;;;16.80;55.40;;;;;;4991527;28;20029;-78
2022/01/31 01:13:58;;;;;;;11.50;3.28;;;16.80;55.40;;;;;;5000013;28;20034;-78
2022/01/31 01:16:24;;;;;;;10.57;2.85;;;16.80;55.40;;;;;;4960137;28;20038;-79
2022/01/31 01:18:49;;;;;;;13.25;3.28;;;16.90;55.40;;;;;;4994167;28;20026;-78
2022/01/31 01:21:15;;;;;;;12.20;2.90;;;16.80;55.30;;;;;;4993207;28;20042;-78
2022/01/31 01:23:40;;;;;;;9.68;2.85;;;16.80;55.30;;;;;;4989385;28;20510;-80
2022/01/31 01:26:06;;;;;;;10.52;3.05;;;16.80;55.30;;;;;;5007306;28;20042;-80
2022/01/31 01:28:31;;;;;;;7.47;3.38;;;16.80;55.20;;;;;;4999131;28;20039;-80
2022/01/31 01:30:57;;;;;;;6.30;2.38;;;16.80;55.30;;;;;;4960167;28;20578;-79
2022/01/31 01:33:24;;;;;;;7.32;2.47;;;16.70;55.20;;;;;;4979050;28;20464;-78
2022/01/31 01:35:51;;;;;;;8.65;2.83;;;16.80;55.30;;;;;;4996727;28;20030;-79
2022/01/31 01:38:18;;;;;;;8.48;2.80;;;16.80;55.20;;;;;;4989656;28;20124;-79
2022/01/31 01:40:44;;;;;;;9.35;2.58;;;16.80;55.30;;;;;;4985390;28;20049;-78
2022/01/31 01:43:10;;;;;;;8.63;3.47;;;16.80;55.30;;;;;;4982228;28;20034;-79
2022/01/31 01:45:37;;;;;;;9.38;3.00;;;16.80;55.20;;;;;;5006079;28;20041;-79
2022/01/31 01:48:04;;;;;;;7.53;2.70;;;16.80;55.20;;;;;;4986876;28;20052;-79
2022/01/31 01:50:29;;;;;;;8.32;2.67;;;16.80;55.20;;;;;;4981155;28;20505;-79
2022/01/31 01:52:55;;;;;;;7.65;2.20;;;16.80;55.20;;;;;;4978215;28;20046;-79
2022/01/31 01:55:20;;;;;;;5.25;2.40;;;16.80;55.20;;;;;;4978737;28;20081;-80
2022/01/31 01:57:46;;;;;;;8.38;2.67;;;16.80;55.20;;;;;;4960356;28;20085;-78
2022/01/31 02:00:26;;;;;;;5.68;2.55;;;16.80;55.20;;;;;;4996580;28;20053;-79
2022/01/31 02:02:51;;;;;;;7.55;2.60;;;16.80;55.20;;;;;;4989416;28;20058;-79
2022/01/31 02:05:17;;;;;;;9.70;3.00;;;16.70;55.10;;;;;;4986418;28;20444;-77
2022/01/31 02:07:43;;;;;;;8.88;2.92;;;16.70;55.10;;;;;;4963459;28;20033;-78
2022/01/31 02:10:09;;;;;;;10.57;2.83;;;16.70;55.10;;;;;;4992565;28;20031;-78
2022/01/31 02:12:45;;;;;;;7.65;2.63;;;16.70;55.10;;;;;;4983884;28;20042;-79
2022/01/31 02:15:11;;;;;;;8.73;2.90;;;16.70;55.10;;;;;;5005706;28;20045;-77
2022/01/31 02:17:37;;;;;;;8.32;2.92;;;16.70;55.10;;;;;;4983418;28;20423;-79
2022/01/31 02:20:03;;;;;;;10.93;3.40;;;16.70;55.10;;;;;;4967661;28;20026;-76
2022/01/31 02:22:29;;;;;;;8.20;3.28;;;16.70;55.10;;;;;;4970283;28;20041;-77
2022/01/31 02:24:54;;;;;;;9.40;2.22;;;16.70;55.00;;;;;;4964353;28;20042;-77
2022/01/31 02:27:33;;;;;;;8.02;2.92;;;16.70;55.00;;;;;;4990935;28;20050;-78
2022/01/31 02:29:59;;;;;;;9.30;2.63;;;16.70;55.00;;;;;;4988602;28;20118;-76
2022/01/31 02:32:24;;;;;;;10.02;3.20;;;16.70;55.00;;;;;;4971145;28;20050;-79
2022/01/31 02:34:50;;;;;;;10.85;2.70;;;16.70;55.00;;;;;;4974523;28;20026;-79
2022/01/31 02:37:16;;;;;;;9.90;3.03;;;16.70;55.00;;;;;;4963519;28;20045;-77
2022/01/31 02:39:42;;;;;;;7.40;2.63;;;16.70;55.00;;;;;;4978755;28;20026;-78
2022/01/31 02:42:08;;;;;;;8.73;2.60;;;16.70;54.90;;;;;;4970920;28;20536;-79
2022/01/31 02:44:33;;;;;;;4.55;2.08;;;16.70;54.90;;;;;;4958340;28;20027;-76
2022/01/31 02:46:59;;;;;;;7.90;2.45;;;16.70;54.90;;;;;;4985496;28;20037;-79
2022/01/31 02:49:26;;;;;;;7.15;2.50;;;16.70;54.90;;;;;;4980687;28;20046;-78
2022/01/31 02:51:58;;;;;;;11.38;2.90;;;16.70;54.90;;;;;;4976707;28;20041;-78
2022/01/31 02:54:24;;;;;;;6.75;2.88;;;16.70;54.90;;;;;;4978768;28;20440;-79
2022/01/31 02:56:49;;;;;;;8.90;2.25;;;16.60;54.80;;;;;;4959629;28;20026;-79
2022/01/31 02:59:15;;;;;;;9.98;2.83;;;16.60;54.80;;;;;;4972012;28;20038;-78
2022/01/31 03:01:40;;;;;;;6.25;2.72;;;16.60;54.80;;;;;;4979682;28;20456;-78
2022/01/31 03:04:07;;;;;;;8.02;3.30;;;16.60;54.80;;;;;;4978641;28;20046;-79
2022/01/31 03:06:33;;;;;;;7.25;2.55;;;16.60;54.70;;;;;;5004782;28;20063;-78
2022/01/31 03:08:58;;;;;;;7.97;2.63;;;16.60;54.70;;;;;;4977043;28;20521;-79
2022/01/31 03:11:24;;;;;;;7.93;2.13;;;16.60;54.70;;;;;;4974350;28;20038;-79
2022/01/31 03:13:49;;;;;;;8.57;2.78;;;16.60;54.60;;;;;;4962004;28;20073;-79
2022/01/31 03:16:15;;;;;;;7.00;2.45;;;16.60;54.70;;;;;;4959619;28;20073;-78
2022/01/31 03:18:40;;;;;;;9.70;2.80;;;16.60;54.70;;;;;;4956475;28;20153;-80
2022/01/31 03:21:06;;;;;;;7.45;2.10;;;16.60;54.60;;;;;;4961166;28;20447;-80
2022/01/31 03:23:33;;;;;;;7.88;2.58;;;16.60;54.70;;;;;;4973236;28;20031;-77
2022/01/31 03:25:59;;;;;;;8.88;3.15;;;16.60;54.80;;;;;;4994247;28;20026;-78
2022/01/31 03:28:24;;;;;;;7.82;2.50;;;16.60;54.80;;;;;;4981605;28;20555;-78
2022/01/31 03:30:51;;;;;;;5.38;2.05;;;16.60;54.80;;;;;;4967657;28;20026;-77
2022/01/31 03:33:17;;;;;;;8.02;2.35;;;16.50;54.90;;;;;;4976620;28;20030;-80
2022/01/31 03:35:42;;;;;;;11.40;3.38;;;16.50;54.90;;;;;;5000010;28;20142;-79
2022/01/31 03:38:08;;;;;;;5.85;2.65;;;16.50;54.90;;;;;;4996816;28;20058;-80
2022/01/31 03:40:33;;;;;;;7.72;2.65;;;16.50;54.90;;;;;;4975059;28;20422;-80
2022/01/31 03:42:59;;;;;;;5.97;2.55;;;16.50;55.00;;;;;;4954583;28;20089;-79
2022/01/31 03:45:24;;;;;;;5.03;2.60;;;16.50;55.00;;;;;;4990818;28;20030;-78
2022/01/31 03:47:50;;;;;;;8.43;2.20;;;16.50;55.00;;;;;;4963925;28;20034;-78
2022/01/31 03:50:17;;;;;;;6.32;2.08;;;16.50;55.00;;;;;;4985016;28;20431;-79
2022/01/31 03:52:42;;;;;;;7.68;2.63;;;16.50;55.00;;;;;;4965016;28;20469;-80
2022/01/31 03:55:09;;;;;;;9.00;2.22;;;16.50;55.00;;;;;;4980457;28;20034;-79
2022/01/31 03:57:35;;;;;;;8.20;2.42;;;16.60;55.20;;;;;;4960975;28;20499;-77
2022/01/31 04:00:04;;;;;;;6.38;2.33;;;16.50;55.00;;;;;;4972166;28;20049;-78
2022/01/31 04:02:29;;;;;;;7.55;2.58;;;16.60;55.10;;;;;;4999495;28;20034;-77
2022/01/31 04:04:55;;;;;;;7.78;2.55;;;16.50;55.10;;;;;;4965954;28;20670;-79
2022/01/31 04:07:20;;;;;;;9.82;2.65;;;16.60;55.20;;;;;;4973381;28;20496;-78
2022/01/31 04:09:46;;;;;;;6.68;2.47;;;16.50;55.10;;;;;;4980344;28;20432;-78
2022/01/31 04:12:11;;;;;;;5.53;2.22;;;16.50;55.10;;;;;;4960844;28;20038;-76
2022/01/31 04:14:37;;;;;;;8.02;2.15;;;16.50;55.10;;;;;;4963711;28;20073;-78
2022/01/31 04:17:07;;;;;;;6.95;2.33;;;16.50;55.20;;;;;;4962147;28;20025;-78
2022/01/31 04:19:32;;;;;;;7.55;2.78;;;16.50;55.10;;;;;;4964555;28;20089;-77
2022/01/31 04:21:58;;;;;;;8.07;2.30;;;16.50;55.10;;;;;;4962574;28;20185;-76
2022/01/31 04:24:30;;;;;;;5.40;2.00;;;16.60;55.20;;;;;;4981785;28;20041;-78
2022/01/31 04:26:59;;;;;;;5.95;2.15;;;16.50;55.10;;;;;;4986448;28;20035;-77
2022/01/31 04:29:28;;;;;;;8.32;2.20;;;16.50;55.10;;;;;;4970770;28;20110;-78
2022/01/31 04:31:54;;;;;;;7.03;2.20;;;16.50;55.10;;;;;;4980069;28;20779;-80
2022/01/31 04:34:20;;;;;;;6.90;2.78;;;16.60;55.20;;;;;;4970680;28;20113;-80
2022/01/31 04:36:46;;;;;;;5.78;1.85;;;16.60;55.20;;;;;;4987286;28;20658;-78
2022/01/31 04:39:16;;;;;;;7.38;2.05;;;16.60;55.20;;;;;;4976576;28;20031;-78
2022/01/31 04:41:42;;;;;;;7.03;2.03;;;16.50;55.20;;;;;;4988349;28;20034;-80
2022/01/31 04:44:08;;;;;;;5.35;2.40;;;16.50;55.20;;;;;;4975906;28;20042;-78
2022/01/31 04:46:34;;;;;;;7.75;2.78;;;16.50;55.10;;;;;;4965747;28;20792;-81
2022/01/31 04:49:00;;;;;;;5.70;2.30;;;16.60;55.20;;;;;;4973066;28;20045;-78
2022/01/31 04:51:25;;;;;;;7.47;2.28;;;16.50;55.20;;;;;;4964347;28;20022;-77
2022/01/31 04:53:51;;;;;;;6.97;2.63;;;16.60;55.20;;;;;;4988919;28;20023;-79
2022/01/31 04:56:16;;;;;;;8.68;2.10;;;16.60;55.20;;;;;;4959695;28;20026;-78
2022/01/31 04:58:42;;;;;;;6.15;2.05;;;16.60;55.20;;;;;;4968464;28;20081;-78
2022/01/31 05:01:08;;;;;;;6.82;2.28;;;16.50;55.10;;;;;;4983953;28;20031;-77
2022/01/31 05:03:34;;;;;;;4.78;2.00;;;16.50;55.00;;;;;;4974505;28;20026;-74
2022/01/31 05:06:00;;;;;;;5.93;2.30;;;16.60;55.10;;;;;;4990021;28;20031;-79
2022/01/31 05:08:28;;;;;;;7.03;2.60;;;16.60;55.10;;;;;;4974103;28;20089;-80
2022/01/31 05:10:53;;;;;;;9.25;2.88;;;16.60;55.10;;;;;;4965414;28;20034;-80
2022/01/31 05:13:19;;;;;;;9.95;2.83;;;16.60;55.10;;;;;;4976190;28;20030;-79
2022/01/31 05:15:44;;;;;;;7.07;2.50;;;16.60;55.10;;;;;;4972646;28;20034;-78
2022/01/31 05:18:10;;;;;;;8.82;2.20;;;16.60;55.10;;;;;;4964378;28;20049;-78
2022/01/31 05:20:36;;;;;;;7.55;2.30;;;16.60;55.00;;;;;;4963445;28;20042;-81
2022/01/31 05:23:03;;;;;;;7.82;2.53;;;16.60;55.00;;;;;;4955371;28;20230;-78
2022/01/31 05:25:29;;;;;;;7.50;2.40;;;16.60;54.90;;;;;;4978546;28;20034;-77
2022/01/31 05:27:54;;;;;;;6.47;1.90;;;16.60;54.90;;;;;;4974810;28;20030;-79
2022/01/31 05:30:22;;;;;;;8.13;2.28;;;16.60;54.90;;;;;;4984755;28;20030;-77
2022/01/31 05:32:47;;;;;;;7.28;2.20;;;16.50;54.70;;;;;;4968002;28;20072;-79
2022/01/31 05:35:13;;;;;;;6.20;2.28;;;16.60;54.80;;;;;;4993019;28;20046;-79
2022/01/31 05:37:38;;;;;;;8.80;2.42;;;16.60;54.70;;;;;;4970980;28;20322;-80
2022/01/31 05:40:04;;;;;;;5.20;2.35;;;16.60;54.70;;;;;;4978931;28;20076;-80
2022/01/31 05:42:30;;;;;;;4.53;1.80;;;16.60;54.70;;;;;;4970098;28;20487;-78
2022/01/31 05:44:56;;;;;;;6.32;2.42;;;16.60;54.60;;;;;;4991164;28;20088;-78
2022/01/31 05:47:21;;;;;;;6.30;2.05;;;16.60;54.60;;;;;;4973992;28;20034;-78
2022/01/31 05:49:47;;;;;;;5.05;1.65;;;16.50;54.60;;;;;;4973919;28;20030;-79
2022/01/31 05:52:12;;;;;;;6.80;2.58;;;16.60;54.50;;;;;;5015909;28;20053;-79
2022/01/31 05:54:38;;;;;;;6.47;2.25;;;16.50;54.50;;;;;;4980745;28;20064;-78
2022/01/31 05:57:04;;;;;;;7.13;2.75;;;16.60;54.50;;;;;;4985554;28;20131;-77
2022/01/31 05:59:30;;;;;;;6.75;2.65;;;16.60;54.50;;;;;;4977218;28;20120;-78
2022/01/31 06:01:57;;;;;;;6.15;2.30;;;16.60;54.40;;;;;;4967372;28;20088;-77
2022/01/31 06:04:23;;;;;;;9.00;2.28;;;16.60;54.40;;;;;;4984402;28;20096;-78
2022/01/31 06:06:49;;;;;;;8.68;2.67;;;16.60;54.40;;;;;;4974321;28;20037;-79
2022/01/31 06:09:14;;;;;;;7.80;2.42;;;16.60;54.30;;;;;;4978208;28;20022;-76
2022/01/31 06:11:41;;;;;;;6.18;2.03;;;16.60;54.30;;;;;;4982116;28;20033;-78
2022/01/31 06:14:08;;;;;;;6.43;2.70;;;16.60;54.30;;;;;;4980523;28;20112;-78
2022/01/31 06:16:34;;;;;;;7.78;2.20;;;16.60;54.30;;;;;;4984777;28;20053;-75
2022/01/31 06:18:59;;;;;;;6.55;2.10;;;16.60;54.20;;;;;;4974889;28;20030;-77
2022/01/31 06:21:25;;;;;;;5.78;2.22;;;16.60;54.20;;;;;;4976210;28;20026;-77
2022/01/31 06:23:50;;;;;;;11.82;2.55;;;16.60;54.20;;;;;;4991329;28;20606;-79
2022/01/31 06:26:16;;;;;;;5.82;2.47;;;16.60;54.20;;;;;;4978048;28;20033;-78
2022/01/31 06:28:41;;;;;;;9.77;2.22;;;16.60;54.20;;;;;;4988298;28;20376;-76
2022/01/31 06:31:07;;;;;;;5.95;2.22;;;16.60;54.20;;;;;;4973825;28;20046;-78
2022/01/31 06:33:32;;;;;;;9.55;2.30;;;16.60;54.10;;;;;;4988725;28;20122;-76
2022/01/31 06:35:59;;;;;;;6.63;2.35;;;16.50;54.00;;;;;;4989623;28;20030;-78
2022/01/31 06:38:25;;;;;;;6.15;2.60;;;16.60;54.10;;;;;;4981655;28;20030;-77
2022/01/31 06:40:51;;;;;;;7.57;2.47;;;16.60;54.10;;;;;;4970003;28;20028;-78
2022/01/31 06:43:16;;;;;;;6.13;2.08;;;16.60;54.10;;;;;;4983516;28;20054;-77
2022/01/31 06:45:42;;;;;;;5.85;1.73;;;16.60;54.10;;;;;;4988435;28;20029;-79
2022/01/31 06:48:07;;;;;;;6.75;2.30;;;16.50;54.10;;;;;;4961002;28;20050;-78
2022/01/31 06:50:33;;;;;;;4.90;2.25;;;16.50;54.10;;;;;;4966562;28;20030;-77
2022/01/31 06:53:01;;;;;;;5.40;2.03;;;16.50;54.10;;;;;;4970246;28;20056;-77
2022/01/31 06:55:28;;;;;;;7.28;2.45;;;16.50;54.10;;;;;;4969603;28;20037;-79
2022/01/31 06:57:54;;;;;;;6.15;2.22;;;16.50;54.10;;;;;;4977044;28;20030;-79
2022/01/31 07:00:19;;;;;;;6.05;2.20;;;16.50;54.70;;;;;;4991993;28;20503;-78
2022/01/31 07:02:46;;;;;;;8.18;2.47;;;16.50;54.10;;;;;;4967095;28;20030;-79
2022/01/31 07:05:13;;;;;;;4.45;2.03;;;16.50;54.10;;;;;;4972623;28;20034;-76
2022/01/31 07:07:38;;;;;;;6.13;2.08;;;16.50;54.10;;;;;;4981017;28;20088;-79
2022/01/31 07:10:05;;;;;;;6.00;2.15;;;16.50;54.10;;;;;;4971149;28;20038;-79
2022/01/31 07:12:37;;;;;;;6.63;2.13;;;16.50;54.10;;;;;;4982477;28;20054;-78
2022/01/31 07:15:04;;;;;;;6.50;2.15;;;16.50;54.30;;;;;;4977200;28;20042;-79
2022/01/31 07:17:30;;;;;;;5.60;1.73;;;16.50;54.40;;;;;;4962404;28;20034;-78
2022/01/31 07:19:56;;;;;;;5.85;2.08;;;16.40;54.40;;;;;;4969268;28;20041;-78
2022/01/31 07:22:27;;;;;;;7.07;2.85;;;16.50;54.50;;;;;;4972140;28;20031;-79
2022/01/31 07:25:03;;;;;;;9.43;2.10;;;16.40;54.50;;;;;;4974801;28;20089;-79
2022/01/31 07:27:29;;;;;;;9.57;1.65;;;16.50;54.60;;;;;;4979349;28;20037;-78
2022/01/31 07:29:54;;;;;;;5.22;2.10;;;16.40;54.70;;;;;;4984331;28;20045;-77
2022/01/31 07:32:20;;;;;;;5.95;2.40;;;16.40;54.70;;;;;;4971669;28;20034;-79
2022/01/31 07:34:52;;;;;;;6.32;2.03;;;16.50;54.80;;;;;;4986252;28;20261;-77
2022/01/31 07:37:18;;;;;;;5.65;1.95;;;16.40;54.90;;;;;;4970737;28;20081;-76
2022/01/31 07:39:44;;;;;;;5.13;1.90;;;16.50;55.00;;;;;;4983204;28;20038;-78
2022/01/31 07:42:09;;;;;;;7.55;1.52;;;16.50;54.90;;;;;;4979827;28;20454;-77
2022/01/31 07:44:35;;;;;;;8.95;1.80;;;16.50;54.90;;;;;;4995144;23;20030;-76
2022/01/31 07:47:01;;;;;;;8.13;1.85;;;16.50;55.10;;;;;;5005671;28;20831;-80
2022/01/31 07:49:26;;;;;;;11.43;2.03;;;16.50;55.10;;;;;;4996595;28;20116;-78
2022/01/31 07:51:54;;;;;;;7.25;1.75;;;16.50;55.20;;;;;;4994109;28;20026;-77
2022/01/31 07:54:20;;;;;;;6.90;2.15;;;16.50;55.20;;;;;;4997235;28;20027;-79
2022/01/31 07:56:45;;;;;;;7.53;2.30;;;16.50;55.40;;;;;;4945880;28;20030;-77
2022/01/31 07:59:11;;;;;;;8.35;1.85;;;16.50;55.40;;;;;;4980939;28;20400;-78
2022/01/31 08:01:40;;;;;;;5.45;1.85;;;16.50;55.50;;;;;;4990451;28;20026;-80
2022/01/31 08:04:05;;;;;;;6.60;2.40;;;16.50;55.60;;;;;;4960126;28;20035;-76
2022/01/31 08:06:31;;;;;;;8.65;2.03;;;16.50;55.60;;;;;;4958518;28;20158;-76
2022/01/31 08:08:56;;;;;;;9.90;2.08;;;16.50;55.80;;;;;;4982069;28;20043;-73
2022/01/31 08:11:24;;;;;;;8.55;2.13;;;16.50;55.70;;;;;;4983534;28;20034;-77
2022/01/31 08:13:55;;;;;;;6.32;2.33;;;16.50;55.60;;;;;;4969135;28;20058;-76
2022/01/31 08:16:20;;;;;;;8.88;2.10;;;16.50;55.50;;;;;;4970724;28;20042;-74
2022/01/31 08:18:46;;;;;;;7.88;2.08;;;16.50;55.50;;;;;;4964483;28;20030;-76
2022/01/31 08:21:13;;;;;;;9.80;2.17;;;16.50;55.40;;;;;;4980721;28;20039;-73
2022/01/31 08:23:38;;;;;;;8.18;2.10;;;16.50;55.30;;;;;;4984083;28;20034;-75
2022/01/31 08:26:04;;;;;;;7.07;1.80;;;16.50;55.10;;;;;;4967244;28;20609;-74
2022/01/31 08:28:38;;;;;;;11.15;2.42;;;16.50;55.00;;;;;;4962659;28;20054;-75
2022/01/31 08:31:12;;;;;;;5.18;1.75;;;16.50;55.00;;;;;;4961619;28;20125;-75
2022/01/31 08:33:49;;;;;;;10.63;3.03;;;16.50;54.90;;;;;;4957994;28;20152;-75
2022/01/31 08:36:15;;;;;;;6.95;2.00;;;16.50;54.80;;;;;;4969735;28;20468;-75
2022/01/31 08:38:41;;;;;;;8.85;2.58;;;16.50;54.70;;;;;;4972783;28;20038;-74
2022/01/31 08:41:07;;;;;;;8.82;2.03;;;16.50;54.70;;;;;;4961981;28;20097;-75
2022/01/31 08:43:33;;;;;;;11.00;1.92;;;16.50;54.50;;;;;;4956743;28;20112;-75
2022/01/31 08:45:59;;;;;;;8.13;1.88;;;16.50;54.50;;;;;;4957231;28;20113;-77
2022/01/31 08:48:25;;;;;;;6.85;2.15;;;16.50;54.30;;;;;;4960468;28;20503;-73
2022/01/31 08:50:50;;;;;;;6.68;2.97;;;16.50;54.60;;;;;;4984765;28;20122;-75
2022/01/31 08:53:16;;;;;;;10.93;4.78;;;16.60;54.40;;;;;;4983029;28;20030;-76
2022/01/31 08:55:45;;;;;;;22.23;9.57;;;16.50;55.20;;;;;;4971988;28;20126;-75
2022/01/31 08:58:11;;;;;;;79.78;32.25;;;16.50;55.50;;;;;;4963877;28;20373;-74
2022/01/31 09:00:37;;;;;;;105.35;38.80;;;16.50;55.70;;;;;;4973743;28;20042;-76
2022/01/31 09:03:19;;;;;;;95.53;37.08;;;16.60;56.00;;;;;;4963650;28;20030;-76
2022/01/31 09:05:44;;;;;;;89.70;33.47;;;16.60;55.80;;;;;;4980557;28;20082;-75
2022/01/31 09:08:10;;;;;;;81.72;32.00;;;16.50;55.50;;;;;;4956931;28;20034;-79
2022/01/31 09:10:35;;;;;;;79.85;29.92;;;16.50;55.50;;;;;;4966736;28;20035;-79
2022/01/31 09:13:01;;;;;;;75.47;28.40;;;16.50;55.50;;;;;;4955999;28;20030;-77
2022/01/31 09:15:26;;;;;;;61.60;23.92;;;16.50;55.50;;;;;;4962394;28;20050;-82
2022/01/31 09:17:52;;;;;;;69.90;24.73;;;16.50;55.50;;;;;;4972368;28;20030;-80
2022/01/31 09:20:18;;;;;;;63.42;24.27;;;16.50;55.50;;;;;;4942861;28;20416;-77
2022/01/31 09:22:43;;;;;;;54.95;22.80;;;16.60;55.60;;;;;;4949178;28;20055;-75
2022/01/31 09:25:12;;;;;;;52.30;20.95;;;16.50;55.50;;;;;;4963942;28;20627;-80
2022/01/31 09:27:37;;;;;;;53.08;20.02;;;16.60;55.50;;;;;;4956208;28;20045;-75
2022/01/31 09:30:07;;;;;;;48.65;17.85;;;16.50;55.40;;;;;;4953796;28;20058;-79
2022/01/31 09:32:32;;;;;;;44.63;16.80;;;16.50;55.90;;;;;;4946118;28;20038;-79
2022/01/31 09:34:58;;;;;;;42.72;16.38;;;16.50;55.20;;;;;;4966971;28;20038;-75
2022/01/31 09:37:23;;;;;;;36.10;14.70;;;16.50;55.20;;;;;;4947373;28;20504;-79
2022/01/31 09:39:50;;;;;;;42.05;14.10;;;16.60;55.20;;;;;;4959785;28;20034;-77
2022/01/31 09:42:24;;;;;;;34.67;13.70;;;16.50;55.00;;;;;;4948074;28;20042;-75
2022/01/31 09:50:20;;;;;;;37.03;11.05;;;16.50;55.20;;;;;;4942299;28;20670;-73
2022/01/31 09:52:45;;;;;;;35.35;10.70;;;16.50;55.40;;;;;;4983630;28;20034;-74
2022/01/31 09:55:11;;;;;;;32.38;11.00;;;16.50;55.50;;;;;;4976487;28;20038;-74
2022/01/31 09:57:36;;;;;;;20.83;9.80;;;16.50;55.70;;;;;;4951349;28;20049;-73
2022/01/31 10:00:03;;;;;;;32.30;9.00;;;16.50;55.80;;;;;;4979992;28;20062;-75
2022/01/31 10:02:29;;;;;;;25.70;9.93;;;16.50;55.90;;;;;;4957835;28;20061;-76
2022/01/31 10:04:55;;;;;;;24.38;8.27;;;16.50;56.00;;;;;;4976915;28;20487;-78
2022/01/31 10:07:21;;;;;;;26.20;8.43;;;16.50;56.00;;;;;;4967196;28;20165;-76
2022/01/31 10:09:48;;;;;;;17.48;7.40;;;16.50;56.00;;;;;;4976728;28;20114;-77
2022/01/31 10:12:26;;;;;;;22.60;7.20;;;16.50;56.10;;;;;;4978139;28;20526;-77
2022/01/31 10:17:40;;;;;;;22.40;6.63;;;16.50;56.60;;;;;;4964629;28;20045;-78
2022/01/31 10:20:17;;;;;;;18.52;7.00;;;16.50;56.70;;;;;;4957727;28;20030;-73
2022/01/31 10:22:43;;;;;;;19.77;6.60;;;16.50;56.90;;;;;;4975635;28;20057;-77
2022/01/31 10:25:14;;;;;;;21.23;6.47;;;16.50;56.80;;;;;;4965896;28;20403;-79
2022/01/31 10:27:41;;;;;;;16.80;6.25;;;16.50;56.90;;;;;;4941784;28;20715;-78
2022/01/31 10:30:18;;;;;;;15.07;5.90;;;16.50;56.80;;;;;;4954405;28;20412;-76
2022/01/31 10:32:45;;;;;;;18.10;6.05;;;16.50;56.80;;;;;;4966392;28;20026;-77
2022/01/31 10:35:15;;;;;;;16.08;5.82;;;16.50;56.80;;;;;;4946990;28;20037;-78
2022/01/31 10:37:41;;;;;;;13.98;5.68;;;16.50;56.70;;;;;;4944584;28;20061;-79
2022/01/31 10:53:43;;;;;;;12.13;5.45;;;16.50;56.50;;;;;;4985307;28;20031;-77
2022/01/31 10:56:08;;;;;;;12.50;4.80;;;16.50;56.60;;;;;;4973173;28;20045;-77
2022/01/31 10:58:34;;;;;;;21.20;5.80;;;16.50;56.60;;;;;;4983195;28;20026;-75
2022/01/31 11:01:16;;;;;;;22.33;5.68;;;16.50;56.60;;;;;;4983800;28;20049;-76
2022/01/31 11:03:41;;;;;;;15.38;4.85;;;16.50;56.70;;;;;;4970346;28;20081;-76
2022/01/31 11:06:10;;;;;;;16.45;5.40;;;16.50;56.90;;;;;;4977293;28;20046;-77
2022/01/31 11:08:36;;;;;;;14.30;5.80;;;16.50;56.80;;;;;;4965954;28;20045;-76
2022/01/31 11:11:02;;;;;;;10.73;4.15;;;16.50;56.70;;;;;;4966810;28;20038;-78
2022/01/31 11:13:27;;;;;;;9.85;3.90;;;16.50;56.50;;;;;;4936894;28;20038;-77
2022/01/31 11:15:56;;;;;;;12.65;4.28;;;16.50;56.50;;;;;;4960107;28;20053;-77
2022/01/31 11:18:22;;;;;;;9.38;4.25;;;16.50;56.40;;;;;;4961474;28;20039;-77
2022/01/31 11:20:49;;;;;;;7.88;4.05;;;16.50;56.40;;;;;;4986303;28;20113;-77
2022/01/31 11:23:14;;;;;;;13.20;4.38;;;16.50;56.30;;;;;;4950153;28;20081;-77
2022/01/31 11:25:40;;;;;;;8.50;3.55;;;16.50;56.20;;;;;;4960207;28;20026;-76
2022/01/31 11:28:06;;;;;;;10.10;4.30;;;16.50;56.10;;;;;;4967537;28;20538;-77
2022/01/31 11:30:32;;;;;;;8.20;3.63;;;16.50;56.20;;;;;;4945425;28;20030;-77
2022/01/31 11:32:57;;;;;;;13.60;3.70;;;16.40;56.00;;;;;;4961511;28;20027;-77
2022/01/31 11:35:23;;;;;;;11.45;3.50;;;16.50;56.00;;;;;;4970410;28;20092;-76
2022/01/31 11:37:49;;;;;;;11.60;4.10;;;16.50;56.00;;;;;;4970183;28;20981;-77
2022/01/31 11:40:14;;;;;;;8.50;3.30;;;16.50;55.90;;;;;;4982587;28;20054;-77
2022/01/31 11:42:41;;;;;;;8.90;3.25;;;16.40;55.80;;;;;;4958658;28;20027;-77
2022/01/31 11:45:33;;;;;;;10.88;2.97;;;16.40;55.80;;;;;;4964795;28;20401;-77
2022/01/31 11:48:04;;;;;;;10.70;3.58;;;16.50;55.80;;;;;;4975350;28;20047;-77
2022/01/31 11:50:29;;;;;;;8.20;2.83;;;16.40;55.70;;;;;;4953598;28;20054;-77
2022/01/31 11:52:57;;;;;;;9.15;3.53;;;16.40;55.70;;;;;;4976193;28;20901;-77
2022/01/31 11:55:24;;;;;;;7.18;2.83;;;16.40;55.70;;;;;;4972918;28;20492;-76
2022/01/31 11:57:53;;;;;;;7.85;2.53;;;16.40;55.60;;;;;;4971740;28;20583;-77
2022/01/31 12:00:23;;;;;;;8.35;3.67;;;16.40;55.60;;;;;;4975055;28;20034;-76
2022/01/31 12:02:51;;;;;;;7.13;3.47;;;16.40;55.60;;;;;;4969423;28;20053;-76
2022/01/31 12:05:28;;;;;;;5.97;3.03;;;16.40;55.60;;;;;;4972167;28;25367;-77
2022/01/31 12:08:04;;;;;;;8.77;2.75;;;16.40;55.60;;;;;;4966947;28;20036;-77
2022/01/31 12:10:34;;;;;;;5.10;2.45;;;16.40;55.50;;;;;;4966484;28;20031;-78
2022/01/31 12:13:11;;;;;;;6.75;2.35;;;16.30;55.50;;;;;;4983956;28;20047;-78
2022/01/31 12:23:46;;;;;;;5.30;2.35;;;16.30;55.40;;;;;;4991239;28;20030;-77
2022/01/31 12:26:35;;;;;;;7.68;2.80;;;16.30;55.40;;;;;;4946105;28;20577;-80
2022/01/31 12:29:15;;;;;;;5.03;2.38;;;16.30;55.40;;;;;;4991758;28;20042;-77
2022/01/31 12:31:42;;;;;;;5.13;2.08;;;16.30;55.40;;;;;;4959753;28;20054;-77
2022/01/31 12:34:27;;;;;;;6.15;2.35;;;16.30;55.40;;;;;;4974031;28;20035;-77
2022/01/31 12:36:54;;;;;;;3.70;1.70;;;16.30;55.40;;;;;;4995090;28;20045;-77
2022/01/31 12:39:45;;;;;;;5.40;2.50;;;16.30;55.30;;;;;;4974888;28;20065;-76
2022/01/31 12:45:33;;;;;;;4.15;2.30;;;16.30;55.30;;;;;;4984353;28;20508;-78
2022/01/31 12:48:12;;;;;;;3.92;1.75;;;16.20;55.30;;;;;;4993331;28;20050;-78
2022/01/31 12:50:53;;;;;;;3.90;2.08;;;16.30;55.30;;;;;;4960775;28;20038;-78
2022/01/31 12:53:36;;;;;;;5.68;2.47;;;16.30;55.70;;;;;;4976892;28;20034;-77
2022/01/31 12:56:04;;;;;;;5.72;2.22;;;16.30;56.20;;;;;;4989495;28;20045;-76
2022/01/31 12:58:30;;;;;;;5.20;2.40;;;16.20;56.60;;;;;;4991702;28;20050;-78
2022/01/31 13:00:56;;;;;;;6.95;1.90;;;16.30;57.00;;;;;;4998144;28;20435;-78
2022/01/31 13:03:34;;;;;;;4.40;2.35;;;16.30;57.20;;;;;;4974786;28;20086;-76
2022/01/31 13:06:00;;;;;;;4.88;2.40;;;16.30;57.40;;;;;;4953481;28;20037;-77
2022/01/31 13:08:25;;;;;;;2.95;2.25;;;16.30;57.50;;;;;;4952077;28;20031;-76
2022/01/31 13:10:52;;;;;;;4.03;2.00;;;16.30;57.70;;;;;;4968858;28;20114;-78
2022/01/31 13:13:44;;;;;;;4.45;2.35;;;16.30;57.70;;;;;;4954425;28;20038;-74
2022/01/31 13:16:11;;;;;;;5.90;1.90;;;16.30;57.80;;;;;;4978888;28;20155;-75